sensor_id;sensor_type;location;lat;lon;timestamp;temperature;humidity
17715;DHT22;8977;50.902;4.314;2022-07-23T00:01:30;21.10;99.90
17715;DHT22;8977;50.902;4.314;2022-07-23T00:03:57;21.10;99.90
17715;DHT22;8977;50.902;4.314;2022-07-23T00:06:24;21.10;99.90
17715;DHT22;8977;50.902;4.314;2022-07-23T00:08:52;21.00;99.90
17715;DHT22;8977;50.902;4.314;2022-07-23T00:11:19;21.00;99.90
17715;DHT22;8977;50.902;4.314;2022-07-23T00:13:47;21.00;99.90
17715;DHT22;8977;50.902;4.314;2022-07-23T00:16:15;21.00;99.90
17715;DHT22;8977;50.902;4.314;2022-07-23T00:18:42;21.00;99.90
17715;DHT22;8977;50.902;4.314;2022-07-23T00:21:09;21.00;99.90
17715;DHT22;8977;50.902;4.314;2022-07-23T00:23:36;21.00;99.90
17715;DHT22;8977;50.902;4.314;2022-07-23T00:26:03;21.00;99.90
17715;DHT22;8977;50.902;4.314;2022-07-23T00:28:33;21.00;99.90
17715;DHT22;8977;50.902;4.314;2022-07-23T00:31:01;20.90;99.90
17715;DHT22;8977;50.902;4.314;2022-07-23T00:33:30;20.90;99.90
17715;DHT22;8977;50.902;4.314;2022-07-23T00:35:57;20.90;99.90
17715;DHT22;8977;50.902;4.314;2022-07-23T00:38:24;20.80;99.90
17715;DHT22;8977;50.902;4.314;2022-07-23T00:40:51;20.80;99.90
17715;DHT22;8977;50.902;4.314;2022-07-23T00:43:20;20.80;99.90
17715;DHT22;8977;50.902;4.314;2022-07-23T00:45:47;20.80;99.90
17715;DHT22;8977;50.902;4.314;2022-07-23T00:48:13;20.80;99.90
17715;DHT22;8977;50.902;4.314;2022-07-23T00:50:42;20.80;99.90
17715;DHT22;8977;50.902;4.314;2022-07-23T00:53:09;20.80;99.90
17715;DHT22;8977;50.902;4.314;2022-07-23T00:55:36;20.70;99.90
17715;DHT22;8977;50.902;4.314;2022-07-23T00:58:04;20.70;99.90
17715;DHT22;8977;50.902;4.314;2022-07-23T01:00:32;20.80;99.90
17715;DHT22;8977;50.902;4.314;2022-07-23T01:02:59;20.70;99.90
17715;DHT22;8977;50.902;4.314;2022-07-23T01:05:26;20.80;99.90
17715;DHT22;8977;50.902;4.314;2022-07-23T01:07:54;20.70;99.90
17715;DHT22;8977;50.902;4.314;2022-07-23T01:10:21;20.70;99.90
17715;DHT22;8977;50.902;4.314;2022-07-23T01:13:01;20.70;99.90
17715;DHT22;8977;50.902;4.314;2022-07-23T01:15:29;20.70;99.90
17715;DHT22;8977;50.902;4.314;2022-07-23T01:17:56;20.60;99.90
17715;DHT22;8977;50.902;4.314;2022-07-23T01:20:23;20.60;99.90
17715;DHT22;8977;50.902;4.314;2022-07-23T01:22:52;20.60;99.90
17715;DHT22;8977;50.902;4.314;2022-07-23T01:25:20;20.60;99.90
17715;DHT22;8977;50.902;4.314;2022-07-23T01:27:47;20.60;99.90
17715;DHT22;8977;50.902;4.314;2022-07-23T01:30:14;20.60;99.90
17715;DHT22;8977;50.902;4.314;2022-07-23T01:32:41;20.60;99.90
17715;DHT22;8977;50.902;4.314;2022-07-23T01:35:09;20.60;99.90
17715;DHT22;8977;50.902;4.314;2022-07-23T01:37:36;20.50;99.90
17715;DHT22;8977;50.902;4.314;2022-07-23T01:40:05;20.60;99.90
17715;DHT22;8977;50.902;4.314;2022-07-23T01:42:32;20.60;99.90
17715;DHT22;8977;50.902;4.314;2022-07-23T01:44:59;20.50;99.90
17715;DHT22;8977;50.902;4.314;2022-07-23T01:47:26;20.50;99.90
17715;DHT22;8977;50.902;4.314;2022-07-23T01:49:53;20.50;99.90
17715;DHT22;8977;50.902;4.314;2022-07-23T01:52:20;20.50;99.90
17715;DHT22;8977;50.902;4.314;2022-07-23T01:54:47;20.50;99.90
17715;DHT22;8977;50.902;4.314;2022-07-23T01:57:15;20.50;99.90
17715;DHT22;8977;50.902;4.314;2022-07-23T01:59:42;20.50;99.90
17715;DHT22;8977;50.902;4.314;2022-07-23T02:02:09;20.40;99.90
17715;DHT22;8977;50.902;4.314;2022-07-23T02:04:36;20.40;99.90
17715;DHT22;8977;50.902;4.314;2022-07-23T02:07:03;20.40;99.90
17715;DHT22;8977;50.902;4.314;2022-07-23T02:09:31;20.40;99.90
17715;DHT22;8977;50.902;4.314;2022-07-23T02:11:58;20.30;99.90
17715;DHT22;8977;50.902;4.314;2022-07-23T02:14:26;20.30;99.90
17715;DHT22;8977;50.902;4.314;2022-07-23T02:16:53;20.40;99.90
17715;DHT22;8977;50.902;4.314;2022-07-23T02:19:20;20.30;99.90
17715;DHT22;8977;50.902;4.314;2022-07-23T02:21:47;20.30;99.90
17715;DHT22;8977;50.902;4.314;2022-07-23T02:24:14;20.40;99.90
17715;DHT22;8977;50.902;4.314;2022-07-23T02:26:41;20.30;99.90
17715;DHT22;8977;50.902;4.314;2022-07-23T02:29:08;20.30;99.90
17715;DHT22;8977;50.902;4.314;2022-07-23T02:31:36;20.30;99.90
17715;DHT22;8977;50.902;4.314;2022-07-23T02:34:03;20.30;99.90
17715;DHT22;8977;50.902;4.314;2022-07-23T02:36:30;20.30;99.90
17715;DHT22;8977;50.902;4.314;2022-07-23T02:38:57;20.30;99.90
17715;DHT22;8977;50.902;4.314;2022-07-23T02:41:24;20.30;99.90
17715;DHT22;8977;50.902;4.314;2022-07-23T02:43:51;20.20;99.90
17715;DHT22;8977;50.902;4.314;2022-07-23T02:46:18;20.30;99.90
17715;DHT22;8977;50.902;4.314;2022-07-23T02:48:46;20.20;99.90
17715;DHT22;8977;50.902;4.314;2022-07-23T02:51:14;20.20;99.90
17715;DHT22;8977;50.902;4.314;2022-07-23T02:53:40;20.20;99.90
17715;DHT22;8977;50.902;4.314;2022-07-23T02:56:08;20.20;99.90
17715;DHT22;8977;50.902;4.314;2022-07-23T02:58:35;20.20;99.90
17715;DHT22;8977;50.902;4.314;2022-07-23T03:01:02;20.20;99.90
17715;DHT22;8977;50.902;4.314;2022-07-23T03:03:29;20.10;99.90
17715;DHT22;8977;50.902;4.314;2022-07-23T03:05:57;20.10;99.90
17715;DHT22;8977;50.902;4.314;2022-07-23T03:08:24;20.10;99.90
17715;DHT22;8977;50.902;4.314;2022-07-23T03:10:51;20.10;99.90
17715;DHT22;8977;50.902;4.314;2022-07-23T03:13:18;20.10;99.90
17715;DHT22;8977;50.902;4.314;2022-07-23T03:15:45;20.10;99.90
17715;DHT22;8977;50.902;4.314;2022-07-23T03:18:12;20.10;99.90
17715;DHT22;8977;50.902;4.314;2022-07-23T03:20:39;20.10;99.90
17715;DHT22;8977;50.902;4.314;2022-07-23T03:23:07;20.10;99.90
17715;DHT22;8977;50.902;4.314;2022-07-23T03:25:34;20.10;99.90
17715;DHT22;8977;50.902;4.314;2022-07-23T03:28:01;20.10;99.90
17715;DHT22;8977;50.902;4.314;2022-07-23T03:30:27;20.00;99.90
17715;DHT22;8977;50.902;4.314;2022-07-23T03:32:54;20.10;99.90
17715;DHT22;8977;50.902;4.314;2022-07-23T03:35:21;20.10;99.90
17715;DHT22;8977;50.902;4.314;2022-07-23T03:37:48;20.10;99.90
17715;DHT22;8977;50.902;4.314;2022-07-23T03:40:16;20.10;99.90
17715;DHT22;8977;50.902;4.314;2022-07-23T03:42:43;20.00;99.90
17715;DHT22;8977;50.902;4.314;2022-07-23T03:45:12;20.10;99.90
17715;DHT22;8977;50.902;4.314;2022-07-23T03:47:39;20.00;99.90
17715;DHT22;8977;50.902;4.314;2022-07-23T03:50:07;20.10;99.90
17715;DHT22;8977;50.902;4.314;2022-07-23T03:52:34;20.00;99.90
17715;DHT22;8977;50.902;4.314;2022-07-23T03:55:01;20.00;99.90
17715;DHT22;8977;50.902;4.314;2022-07-23T03:57:29;20.00;99.90
17715;DHT22;8977;50.902;4.314;2022-07-23T03:59:56;20.00;99.90
17715;DHT22;8977;50.902;4.314;2022-07-23T04:02:23;20.00;99.90
17715;DHT22;8977;50.902;4.314;2022-07-23T04:04:50;20.00;99.90
17715;DHT22;8977;50.902;4.314;2022-07-23T04:07:17;20.00;99.90
17715;DHT22;8977;50.902;4.314;2022-07-23T04:09:44;20.00;99.90
17715;DHT22;8977;50.902;4.314;2022-07-23T04:12:11;20.00;99.90
17715;DHT22;8977;50.902;4.314;2022-07-23T04:14:40;20.00;99.90
17715;DHT22;8977;50.902;4.314;2022-07-23T04:17:06;20.00;99.90
17715;DHT22;8977;50.902;4.314;2022-07-23T04:19:33;20.00;99.90
17715;DHT22;8977;50.902;4.314;2022-07-23T04:22:01;20.00;99.90
17715;DHT22;8977;50.902;4.314;2022-07-23T04:24:28;20.00;99.90
17715;DHT22;8977;50.902;4.314;2022-07-23T04:26:55;20.00;99.90
17715;DHT22;8977;50.902;4.314;2022-07-23T04:29:22;20.00;99.90
17715;DHT22;8977;50.902;4.314;2022-07-23T04:31:50;19.90;99.90
17715;DHT22;8977;50.902;4.314;2022-07-23T04:34:18;19.90;99.90
17715;DHT22;8977;50.902;4.314;2022-07-23T04:36:44;19.90;99.90
17715;DHT22;8977;50.902;4.314;2022-07-23T04:39:11;19.90;99.90
17715;DHT22;8977;50.902;4.314;2022-07-23T04:41:38;20.00;99.90
17715;DHT22;8977;50.902;4.314;2022-07-23T04:44:05;20.00;99.90
17715;DHT22;8977;50.902;4.314;2022-07-23T04:46:32;19.90;99.90
17715;DHT22;8977;50.902;4.314;2022-07-23T04:49:00;19.90;99.90
17715;DHT22;8977;50.902;4.314;2022-07-23T04:51:27;19.90;99.90
17715;DHT22;8977;50.902;4.314;2022-07-23T04:53:54;19.90;99.90
17715;DHT22;8977;50.902;4.314;2022-07-23T04:56:21;19.90;99.90
17715;DHT22;8977;50.902;4.314;2022-07-23T04:58:48;19.90;99.90
17715;DHT22;8977;50.902;4.314;2022-07-23T05:01:15;19.90;99.90
17715;DHT22;8977;50.902;4.314;2022-07-23T05:03:42;19.90;99.90
17715;DHT22;8977;50.902;4.314;2022-07-23T05:06:10;20.00;99.90
17715;DHT22;8977;50.902;4.314;2022-07-23T05:08:37;20.00;99.90
17715;DHT22;8977;50.902;4.314;2022-07-23T05:11:04;20.00;99.90
17715;DHT22;8977;50.902;4.314;2022-07-23T05:13:31;20.00;99.90
17715;DHT22;8977;50.902;4.314;2022-07-23T05:15:58;20.10;99.90
17715;DHT22;8977;50.902;4.314;2022-07-23T05:18:25;20.10;99.90
17715;DHT22;8977;50.902;4.314;2022-07-23T05:20:52;20.10;99.90
17715;DHT22;8977;50.902;4.314;2022-07-23T05:23:20;20.10;99.90
17715;DHT22;8977;50.902;4.314;2022-07-23T05:25:47;20.20;99.90
17715;DHT22;8977;50.902;4.314;2022-07-23T05:28:15;20.20;99.90
17715;DHT22;8977;50.902;4.314;2022-07-23T05:30:42;20.20;99.90
17715;DHT22;8977;50.902;4.314;2022-07-23T05:33:09;20.20;99.90
17715;DHT22;8977;50.902;4.314;2022-07-23T05:35:36;20.20;99.90
17715;DHT22;8977;50.902;4.314;2022-07-23T05:38:03;20.20;99.90
17715;DHT22;8977;50.902;4.314;2022-07-23T05:40:31;20.20;99.90
17715;DHT22;8977;50.902;4.314;2022-07-23T05:42:58;20.30;99.90
17715;DHT22;8977;50.902;4.314;2022-07-23T05:45:25;20.30;99.90
17715;DHT22;8977;50.902;4.314;2022-07-23T05:47:52;20.30;99.90
17715;DHT22;8977;50.902;4.314;2022-07-23T05:50:19;20.40;99.90
17715;DHT22;8977;50.902;4.314;2022-07-23T05:52:46;20.30;99.90
17715;DHT22;8977;50.902;4.314;2022-07-23T05:55:13;20.30;99.90
17715;DHT22;8977;50.902;4.314;2022-07-23T05:57:41;20.30;99.90
17715;DHT22;8977;50.902;4.314;2022-07-23T06:00:10;20.40;99.90
17715;DHT22;8977;50.902;4.314;2022-07-23T06:02:37;20.30;99.90
17715;DHT22;8977;50.902;4.314;2022-07-23T06:05:05;20.40;99.90
17715;DHT22;8977;50.902;4.314;2022-07-23T06:07:33;20.40;99.90
17715;DHT22;8977;50.902;4.314;2022-07-23T06:10:00;20.40;99.90
17715;DHT22;8977;50.902;4.314;2022-07-23T06:12:27;20.40;99.90
17715;DHT22;8977;50.902;4.314;2022-07-23T06:14:55;20.40;99.90
17715;DHT22;8977;50.902;4.314;2022-07-23T06:17:22;20.40;99.90
17715;DHT22;8977;50.902;4.314;2022-07-23T06:19:49;20.40;99.90
17715;DHT22;8977;50.902;4.314;2022-07-23T06:22:16;20.40;99.90
17715;DHT22;8977;50.902;4.314;2022-07-23T06:24:43;20.50;99.90
17715;DHT22;8977;50.902;4.314;2022-07-23T06:27:10;20.50;99.90
17715;DHT22;8977;50.902;4.314;2022-07-23T06:29:36;20.50;99.90
17715;DHT22;8977;50.902;4.314;2022-07-23T06:32:05;20.60;99.90
17715;DHT22;8977;50.902;4.314;2022-07-23T06:34:32;20.60;99.90
17715;DHT22;8977;50.902;4.314;2022-07-23T06:36:59;20.60;99.90
17715;DHT22;8977;50.902;4.314;2022-07-23T06:39:26;20.70;99.90
17715;DHT22;8977;50.902;4.314;2022-07-23T06:41:53;20.70;99.90
17715;DHT22;8977;50.902;4.314;2022-07-23T06:44:21;20.70;99.90
17715;DHT22;8977;50.902;4.314;2022-07-23T06:46:47;20.70;99.90
17715;DHT22;8977;50.902;4.314;2022-07-23T06:49:16;20.80;99.90
17715;DHT22;8977;50.902;4.314;2022-07-23T06:51:43;20.80;99.90
17715;DHT22;8977;50.902;4.314;2022-07-23T06:54:09;20.80;99.90
17715;DHT22;8977;50.902;4.314;2022-07-23T06:56:36;20.80;99.90
17715;DHT22;8977;50.902;4.314;2022-07-23T06:59:03;20.90;99.90
17715;DHT22;8977;50.902;4.314;2022-07-23T07:01:30;20.90;99.90
17715;DHT22;8977;50.902;4.314;2022-07-23T07:03:57;20.90;99.90
17715;DHT22;8977;50.902;4.314;2022-07-23T07:06:25;20.90;99.90
17715;DHT22;8977;50.902;4.314;2022-07-23T07:08:52;20.90;99.90
17715;DHT22;8977;50.902;4.314;2022-07-23T07:11:20;21.00;99.90
17715;DHT22;8977;50.902;4.314;2022-07-23T07:13:47;21.00;99.90
17715;DHT22;8977;50.902;4.314;2022-07-23T07:16:14;21.00;99.90
17715;DHT22;8977;50.902;4.314;2022-07-23T07:18:40;21.00;99.90
17715;DHT22;8977;50.902;4.314;2022-07-23T07:21:07;21.10;99.90
17715;DHT22;8977;50.902;4.314;2022-07-23T07:23:35;21.10;99.90
17715;DHT22;8977;50.902;4.314;2022-07-23T07:26:02;21.20;99.90
17715;DHT22;8977;50.902;4.314;2022-07-23T07:28:29;21.20;99.90
17715;DHT22;8977;50.902;4.314;2022-07-23T07:30:56;21.20;99.90
17715;DHT22;8977;50.902;4.314;2022-07-23T07:33:23;21.20;99.90
17715;DHT22;8977;50.902;4.314;2022-07-23T07:35:50;21.30;99.90
17715;DHT22;8977;50.902;4.314;2022-07-23T07:38:17;21.30;99.90
17715;DHT22;8977;50.902;4.314;2022-07-23T07:40:45;21.40;99.90
17715;DHT22;8977;50.902;4.314;2022-07-23T07:43:12;21.40;99.90
17715;DHT22;8977;50.902;4.314;2022-07-23T07:45:39;21.40;99.90
17715;DHT22;8977;50.902;4.314;2022-07-23T07:48:06;21.50;99.90
17715;DHT22;8977;50.902;4.314;2022-07-23T07:50:33;21.50;99.90
17715;DHT22;8977;50.902;4.314;2022-07-23T07:53:00;21.50;99.90
17715;DHT22;8977;50.902;4.314;2022-07-23T07:55:27;21.50;99.90
17715;DHT22;8977;50.902;4.314;2022-07-23T07:57:55;21.50;99.90
17715;DHT22;8977;50.902;4.314;2022-07-23T08:00:22;21.50;99.90
17715;DHT22;8977;50.902;4.314;2022-07-23T08:02:51;21.60;99.90
17715;DHT22;8977;50.902;4.314;2022-07-23T08:05:19;21.60;99.90
17715;DHT22;8977;50.902;4.314;2022-07-23T08:07:47;21.60;99.90
17715;DHT22;8977;50.902;4.314;2022-07-23T08:10:14;21.70;99.90
17715;DHT22;8977;50.902;4.314;2022-07-23T08:12:42;21.70;99.90
17715;DHT22;8977;50.902;4.314;2022-07-23T08:15:12;21.70;99.90
17715;DHT22;8977;50.902;4.314;2022-07-23T08:17:39;21.80;99.90
17715;DHT22;8977;50.902;4.314;2022-07-23T08:20:07;21.80;99.90
17715;DHT22;8977;50.902;4.314;2022-07-23T08:22:45;21.90;99.90
17715;DHT22;8977;50.902;4.314;2022-07-23T08:25:13;22.00;99.90
17715;DHT22;8977;50.902;4.314;2022-07-23T08:27:40;22.00;99.90
17715;DHT22;8977;50.902;4.314;2022-07-23T08:30:08;22.00;99.90
17715;DHT22;8977;50.902;4.314;2022-07-23T08:32:52;22.10;99.90
17715;DHT22;8977;50.902;4.314;2022-07-23T08:35:25;22.10;99.90
17715;DHT22;8977;50.902;4.314;2022-07-23T08:37:52;22.20;99.90
17715;DHT22;8977;50.902;4.314;2022-07-23T08:40:19;22.20;99.90
17715;DHT22;8977;50.902;4.314;2022-07-23T08:42:48;22.20;99.90
17715;DHT22;8977;50.902;4.314;2022-07-23T08:45:17;22.20;99.90
17715;DHT22;8977;50.902;4.314;2022-07-23T08:47:49;22.30;99.90
17715;DHT22;8977;50.902;4.314;2022-07-23T08:50:16;22.30;99.90
17715;DHT22;8977;50.902;4.314;2022-07-23T08:52:43;22.40;99.90
17715;DHT22;8977;50.902;4.314;2022-07-23T08:55:11;22.40;99.90
17715;DHT22;8977;50.902;4.314;2022-07-23T08:57:38;22.40;99.90
17715;DHT22;8977;50.902;4.314;2022-07-23T09:00:06;22.50;99.90
17715;DHT22;8977;50.902;4.314;2022-07-23T09:02:39;22.50;99.90
17715;DHT22;8977;50.902;4.314;2022-07-23T09:05:09;22.60;99.90
17715;DHT22;8977;50.902;4.314;2022-07-23T09:07:37;22.60;99.90
17715;DHT22;8977;50.902;4.314;2022-07-23T09:10:06;22.70;99.90
17715;DHT22;8977;50.902;4.314;2022-07-23T09:12:34;22.70;99.90
17715;DHT22;8977;50.902;4.314;2022-07-23T09:15:04;22.80;99.90
17715;DHT22;8977;50.902;4.314;2022-07-23T09:17:37;22.80;99.90
17715;DHT22;8977;50.902;4.314;2022-07-23T09:20:10;22.80;99.90
17715;DHT22;8977;50.902;4.314;2022-07-23T09:22:37;22.90;99.90
17715;DHT22;8977;50.902;4.314;2022-07-23T09:25:08;22.90;99.90
17715;DHT22;8977;50.902;4.314;2022-07-23T09:27:47;23.00;99.90
17715;DHT22;8977;50.902;4.314;2022-07-23T09:30:15;23.00;99.90
17715;DHT22;8977;50.902;4.314;2022-07-23T09:32:42;23.00;99.90
17715;DHT22;8977;50.902;4.314;2022-07-23T09:35:10;23.00;99.90
17715;DHT22;8977;50.902;4.314;2022-07-23T09:37:37;23.00;99.90
17715;DHT22;8977;50.902;4.314;2022-07-23T09:40:05;23.10;99.90
17715;DHT22;8977;50.902;4.314;2022-07-23T09:42:33;23.10;99.90
17715;DHT22;8977;50.902;4.314;2022-07-23T09:45:00;23.20;99.90
17715;DHT22;8977;50.902;4.314;2022-07-23T09:47:30;23.20;99.90
17715;DHT22;8977;50.902;4.314;2022-07-23T09:49:59;23.20;99.90
17715;DHT22;8977;50.902;4.314;2022-07-23T09:52:28;23.20;99.90
17715;DHT22;8977;50.902;4.314;2022-07-23T09:54:59;23.20;99.90
17715;DHT22;8977;50.902;4.314;2022-07-23T09:57:27;23.20;99.90
17715;DHT22;8977;50.902;4.314;2022-07-23T09:59:56;23.30;99.90
17715;DHT22;8977;50.902;4.314;2022-07-23T10:02:26;23.30;99.90
17715;DHT22;8977;50.902;4.314;2022-07-23T10:04:54;23.40;99.90
17715;DHT22;8977;50.902;4.314;2022-07-23T10:07:22;23.40;99.90
17715;DHT22;8977;50.902;4.314;2022-07-23T10:09:51;23.50;99.90
17715;DHT22;8977;50.902;4.314;2022-07-23T10:12:19;23.50;99.90
17715;DHT22;8977;50.902;4.314;2022-07-23T10:14:50;23.60;99.90
17715;DHT22;8977;50.902;4.314;2022-07-23T10:17:18;23.60;99.90
17715;DHT22;8977;50.902;4.314;2022-07-23T10:19:45;23.60;99.90
17715;DHT22;8977;50.902;4.314;2022-07-23T10:22:14;23.60;99.90
17715;DHT22;8977;50.902;4.314;2022-07-23T10:25:04;23.60;99.90
17715;DHT22;8977;50.902;4.314;2022-07-23T10:30:39;23.80;99.90
17715;DHT22;8977;50.902;4.314;2022-07-23T10:33:27;23.80;99.90
17715;DHT22;8977;50.902;4.314;2022-07-23T10:36:02;23.80;99.90
17715;DHT22;8977;50.902;4.314;2022-07-23T10:38:35;23.80;99.90
17715;DHT22;8977;50.902;4.314;2022-07-23T10:41:05;23.90;99.90
17715;DHT22;8977;50.902;4.314;2022-07-23T10:43:32;24.00;99.90
17715;DHT22;8977;50.902;4.314;2022-07-23T10:46:21;24.00;99.90
17715;DHT22;8977;50.902;4.314;2022-07-23T10:58:05;24.10;99.90
17715;DHT22;8977;50.902;4.314;2022-07-23T11:00:33;24.20;99.90
17715;DHT22;8977;50.902;4.314;2022-07-23T11:03:02;24.20;99.90
17715;DHT22;8977;50.902;4.314;2022-07-23T11:05:40;24.20;99.90
17715;DHT22;8977;50.902;4.314;2022-07-23T11:08:13;24.30;99.90
17715;DHT22;8977;50.902;4.314;2022-07-23T11:10:48;24.30;99.90
17715;DHT22;8977;50.902;4.314;2022-07-23T11:13:36;24.40;99.90
17715;DHT22;8977;50.902;4.314;2022-07-23T11:16:08;24.40;99.90
17715;DHT22;8977;50.902;4.314;2022-07-23T11:18:57;24.40;99.90
17715;DHT22;8977;50.902;4.314;2022-07-23T11:21:43;24.50;99.90
17715;DHT22;8977;50.902;4.314;2022-07-23T11:24:11;24.60;99.80
17715;DHT22;8977;50.902;4.314;2022-07-23T11:26:49;24.60;99.60
17715;DHT22;8977;50.902;4.314;2022-07-23T11:29:40;24.60;99.80
17715;DHT22;8977;50.902;4.314;2022-07-23T11:32:17;24.70;99.70
17715;DHT22;8977;50.902;4.314;2022-07-23T11:34:46;24.70;99.70
17715;DHT22;8977;50.902;4.314;2022-07-23T11:37:38;24.70;99.00
17715;DHT22;8977;50.902;4.314;2022-07-23T11:40:08;24.70;99.20
17715;DHT22;8977;50.902;4.314;2022-07-23T11:42:37;24.80;98.90
17715;DHT22;8977;50.902;4.314;2022-07-23T11:45:07;24.80;98.40
17715;DHT22;8977;50.902;4.314;2022-07-23T11:47:35;24.90;98.40
17715;DHT22;8977;50.902;4.314;2022-07-23T11:50:04;24.90;98.30
17715;DHT22;8977;50.902;4.314;2022-07-23T11:52:32;24.90;98.60
17715;DHT22;8977;50.902;4.314;2022-07-23T11:55:01;25.00;99.30
17715;DHT22;8977;50.902;4.314;2022-07-23T11:57:31;25.00;99.50
17715;DHT22;8977;50.902;4.314;2022-07-23T12:00:03;25.10;99.20
17715;DHT22;8977;50.902;4.314;2022-07-23T12:02:32;25.10;98.80
17715;DHT22;8977;50.902;4.314;2022-07-23T12:04:59;25.10;99.00
17715;DHT22;8977;50.902;4.314;2022-07-23T12:07:28;25.20;99.10
17715;DHT22;8977;50.902;4.314;2022-07-23T12:09:56;25.30;99.10
17715;DHT22;8977;50.902;4.314;2022-07-23T12:12:23;25.40;98.60
17715;DHT22;8977;50.902;4.314;2022-07-23T12:14:52;25.40;97.70
17715;DHT22;8977;50.902;4.314;2022-07-23T12:17:20;25.50;97.70
17715;DHT22;8977;50.902;4.314;2022-07-23T12:19:48;25.50;98.10
17715;DHT22;8977;50.902;4.314;2022-07-23T12:22:16;25.50;97.70
17715;DHT22;8977;50.902;4.314;2022-07-23T12:24:56;25.50;97.90
17715;DHT22;8977;50.902;4.314;2022-07-23T12:27:24;25.50;97.70
17715;DHT22;8977;50.902;4.314;2022-07-23T12:29:52;25.60;97.70
17715;DHT22;8977;50.902;4.314;2022-07-23T12:32:20;25.60;97.80
17715;DHT22;8977;50.902;4.314;2022-07-23T12:34:50;25.60;97.80
17715;DHT22;8977;50.902;4.314;2022-07-23T12:37:31;25.80;97.60
17715;DHT22;8977;50.902;4.314;2022-07-23T12:39:58;25.80;97.60
17715;DHT22;8977;50.902;4.314;2022-07-23T12:42:25;25.90;97.40
17715;DHT22;8977;50.902;4.314;2022-07-23T12:45:06;25.90;97.60
17715;DHT22;8977;50.902;4.314;2022-07-23T12:48:01;25.90;97.80
17715;DHT22;8977;50.902;4.314;2022-07-23T12:50:44;25.90;97.90
17715;DHT22;8977;50.902;4.314;2022-07-23T12:53:16;25.90;97.60
17715;DHT22;8977;50.902;4.314;2022-07-23T12:55:44;25.90;97.50
17715;DHT22;8977;50.902;4.314;2022-07-23T12:58:14;25.80;97.60
17715;DHT22;8977;50.902;4.314;2022-07-23T13:00:50;25.90;97.60
17715;DHT22;8977;50.902;4.314;2022-07-23T13:03:29;25.90;97.40
17715;DHT22;8977;50.902;4.314;2022-07-23T13:05:58;25.80;97.80
17715;DHT22;8977;50.902;4.314;2022-07-23T13:08:27;25.70;97.80
17715;DHT22;8977;50.902;4.314;2022-07-23T13:10:55;25.70;97.50
17715;DHT22;8977;50.902;4.314;2022-07-23T13:13:23;25.60;97.50
17715;DHT22;8977;50.902;4.314;2022-07-23T13:15:51;25.60;98.10
17715;DHT22;8977;50.902;4.314;2022-07-23T13:18:19;25.60;97.80
17715;DHT22;8977;50.902;4.314;2022-07-23T13:20:47;25.70;98.10
17715;DHT22;8977;50.902;4.314;2022-07-23T13:23:16;25.80;98.10
17715;DHT22;8977;50.902;4.314;2022-07-23T13:25:44;25.90;97.80
17715;DHT22;8977;50.902;4.314;2022-07-23T13:28:11;26.00;97.50
17715;DHT22;8977;50.902;4.314;2022-07-23T13:30:39;26.20;97.20
17715;DHT22;8977;50.902;4.314;2022-07-23T13:33:06;26.20;97.30
17715;DHT22;8977;50.902;4.314;2022-07-23T13:35:34;26.30;97.30
17715;DHT22;8977;50.902;4.314;2022-07-23T13:38:01;26.30;97.20
17715;DHT22;8977;50.902;4.314;2022-07-23T13:40:30;26.30;97.30
17715;DHT22;8977;50.902;4.314;2022-07-23T13:42:57;26.20;97.60
17715;DHT22;8977;50.902;4.314;2022-07-23T13:45:24;26.10;97.50
17715;DHT22;8977;50.902;4.314;2022-07-23T13:47:50;26.00;97.60
17715;DHT22;8977;50.902;4.314;2022-07-23T13:50:17;26.00;97.80
17715;DHT22;8977;50.902;4.314;2022-07-23T13:52:44;25.90;97.80
17715;DHT22;8977;50.902;4.314;2022-07-23T13:55:11;25.90;97.40
17715;DHT22;8977;50.902;4.314;2022-07-23T13:57:39;25.90;97.70
17715;DHT22;8977;50.902;4.314;2022-07-23T14:00:08;25.90;98.00
17715;DHT22;8977;50.902;4.314;2022-07-23T14:02:37;25.90;98.20
17715;DHT22;8977;50.902;4.314;2022-07-23T14:05:05;26.10;97.60
17715;DHT22;8977;50.902;4.314;2022-07-23T14:07:32;26.10;97.90
17715;DHT22;8977;50.902;4.314;2022-07-23T14:09:59;26.10;97.70
17715;DHT22;8977;50.902;4.314;2022-07-23T14:12:26;26.10;97.50
17715;DHT22;8977;50.902;4.314;2022-07-23T14:14:54;26.20;97.60
17715;DHT22;8977;50.902;4.314;2022-07-23T14:17:21;26.20;97.70
17715;DHT22;8977;50.902;4.314;2022-07-23T14:19:48;26.30;98.00
17715;DHT22;8977;50.902;4.314;2022-07-23T14:22:15;26.30;97.70
17715;DHT22;8977;50.902;4.314;2022-07-23T14:24:42;26.30;97.50
17715;DHT22;8977;50.902;4.314;2022-07-23T14:27:09;26.30;97.40
17715;DHT22;8977;50.902;4.314;2022-07-23T14:29:36;26.30;97.40
17715;DHT22;8977;50.902;4.314;2022-07-23T14:32:05;26.40;97.10
17715;DHT22;8977;50.902;4.314;2022-07-23T14:34:32;26.40;96.80
17715;DHT22;8977;50.902;4.314;2022-07-23T14:36:59;26.40;96.90
17715;DHT22;8977;50.902;4.314;2022-07-23T14:39:26;26.50;96.60
17715;DHT22;8977;50.902;4.314;2022-07-23T14:41:53;26.50;96.80
17715;DHT22;8977;50.902;4.314;2022-07-23T14:44:20;26.50;96.90
17715;DHT22;8977;50.902;4.314;2022-07-23T14:46:47;26.60;96.50
17715;DHT22;8977;50.902;4.314;2022-07-23T14:49:15;26.60;96.40
17715;DHT22;8977;50.902;4.314;2022-07-23T14:51:42;26.60;96.50
17715;DHT22;8977;50.902;4.314;2022-07-23T14:54:10;26.50;96.70
17715;DHT22;8977;50.902;4.314;2022-07-23T14:56:37;26.60;96.40
17715;DHT22;8977;50.902;4.314;2022-07-23T14:59:04;26.60;96.50
17715;DHT22;8977;50.902;4.314;2022-07-23T15:01:32;26.50;96.40
17715;DHT22;8977;50.902;4.314;2022-07-23T15:03:58;26.60;96.60
17715;DHT22;8977;50.902;4.314;2022-07-23T15:06:27;26.60;96.40
17715;DHT22;8977;50.902;4.314;2022-07-23T15:08:54;26.70;96.70
17715;DHT22;8977;50.902;4.314;2022-07-23T15:11:21;26.80;96.90
17715;DHT22;8977;50.902;4.314;2022-07-23T15:13:48;26.90;96.30
17715;DHT22;8977;50.902;4.314;2022-07-23T15:16:14;27.00;96.40
17715;DHT22;8977;50.902;4.314;2022-07-23T15:18:41;27.00;96.40
17715;DHT22;8977;50.902;4.314;2022-07-23T15:21:08;27.10;95.50
17715;DHT22;8977;50.902;4.314;2022-07-23T15:23:37;27.00;95.90
17715;DHT22;8977;50.902;4.314;2022-07-23T15:26:05;26.90;96.30
17715;DHT22;8977;50.902;4.314;2022-07-23T15:28:33;27.00;96.20
17715;DHT22;8977;50.902;4.314;2022-07-23T15:31:00;27.00;95.90
17715;DHT22;8977;50.902;4.314;2022-07-23T15:33:27;27.10;96.00
17715;DHT22;8977;50.902;4.314;2022-07-23T15:35:54;27.10;96.20
17715;DHT22;8977;50.902;4.314;2022-07-23T15:38:23;27.20;96.20
17715;DHT22;8977;50.902;4.314;2022-07-23T15:40:52;27.30;96.00
17715;DHT22;8977;50.902;4.314;2022-07-23T15:43:19;27.40;95.70
17715;DHT22;8977;50.902;4.314;2022-07-23T15:45:46;27.40;95.80
17715;DHT22;8977;50.902;4.314;2022-07-23T15:48:13;27.50;95.60
17715;DHT22;8977;50.902;4.314;2022-07-23T15:50:41;27.50;95.70
17715;DHT22;8977;50.902;4.314;2022-07-23T15:53:08;27.60;95.90
17715;DHT22;8977;50.902;4.314;2022-07-23T15:55:35;27.70;95.60
17715;DHT22;8977;50.902;4.314;2022-07-23T15:58:05;27.80;95.30
17715;DHT22;8977;50.902;4.314;2022-07-23T16:00:33;27.90;95.60
17715;DHT22;8977;50.902;4.314;2022-07-23T16:03:00;27.90;95.40
17715;DHT22;8977;50.902;4.314;2022-07-23T16:05:27;27.90;95.30